Archival Weather

Vermilion Rgnl

Danville, Illinois (KDNV)

Report from: Saturday, April 13, 2024 1:35 PM CDT
Current time: Sunday, July 14, 2024 5:14 AM CDT

Current weather – Weather history – Daily summaries
Weather forecast

Temperature19.2°C (66.6°F)
Dew point4.3°C (39.7°F)
Winds 11 kts (5.7 m/s, 12.7 mph) Southwest (230°)
Wind gusts 14 kts (7.2 m/s, 16.1 mph)
Visibility10 mi. (16.1 km)
Clouds Sky clear
Altimeter30.11 in.Hg (1020 mB)
Relative humidity37 %
Density altitude402 ft. (122 m)
Remarks Fully automated report
Automated weather observing station with precipitation discriminator
Flight conditions Visual Meteorological Conditions
Raw dataKDNV 131835Z AUTO 23011G14KT 10SM CLR 19/04 A3011 RMK AO2 T01920043
An error has occurred. This application may no longer respond until reloaded. Reload 🗙